createdAt,value
2019-05-18T00:01:13.680Z,0.00
2019-05-18T00:02:13.723Z,0.00
2019-05-18T00:04:06.717Z,0.00
2019-05-18T00:05:06.762Z,0.00
2019-05-18T00:06:59.742Z,0.00
2019-05-18T00:07:59.804Z,0.00
2019-05-18T00:09:52.802Z,0.00
2019-05-18T00:10:52.841Z,0.00
2019-05-18T00:12:45.858Z,0.00
2019-05-18T00:13:45.885Z,0.00
2019-05-18T00:15:38.893Z,0.00
2019-05-18T00:16:38.933Z,0.00
2019-05-18T00:18:31.911Z,0.00
2019-05-18T00:19:31.970Z,0.00
2019-05-18T00:21:24.976Z,0.00
2019-05-18T00:22:25.011Z,0.00
2019-05-18T00:24:18.014Z,0.00
2019-05-18T00:25:18.058Z,0.00
2019-05-18T00:27:11.043Z,0.00
2019-05-18T00:28:11.096Z,0.00
2019-05-18T00:30:04.102Z,0.00
2019-05-18T00:31:04.139Z,0.00
2019-05-18T00:32:57.129Z,0.00
2019-05-18T00:33:57.173Z,0.00
2019-05-18T00:35:50.178Z,0.00
2019-05-18T00:36:50.218Z,0.00
2019-05-18T00:38:43.235Z,0.00
2019-05-18T00:39:43.261Z,0.00
2019-05-18T00:41:36.240Z,0.00
2019-05-18T00:42:36.295Z,0.00
2019-05-18T00:44:29.294Z,0.00
2019-05-18T00:45:29.335Z,0.00
2019-05-18T00:47:22.313Z,0.00
2019-05-18T00:48:22.377Z,0.00
2019-05-18T00:50:15.379Z,0.00
2019-05-18T00:51:15.415Z,0.00
2019-05-18T00:53:08.396Z,0.00
2019-05-18T00:54:08.454Z,0.00
2019-05-18T00:56:01.461Z,0.00
2019-05-18T00:57:01.494Z,0.00
2019-05-18T00:58:54.485Z,0.00
2019-05-18T00:59:54.534Z,0.00
2019-05-18T01:01:47.539Z,0.00
2019-05-18T01:02:47.586Z,0.00
2019-05-18T01:04:40.583Z,0.00
2019-05-18T01:05:40.614Z,0.00
2019-05-18T01:07:33.597Z,0.00
2019-05-18T01:08:33.654Z,0.00
2019-05-18T01:10:26.654Z,0.00
2019-05-18T01:11:26.691Z,0.00
2019-05-18T01:13:19.690Z,0.00
2019-05-18T01:14:19.728Z,0.00
2019-05-18T01:16:12.722Z,0.00
2019-05-18T01:17:12.773Z,0.00
2019-05-18T01:19:05.773Z,0.00
2019-05-18T01:20:05.811Z,0.00
2019-05-18T01:21:58.847Z,0.00
2019-05-18T01:22:58.850Z,0.00
2019-05-18T01:24:51.849Z,0.00
2019-05-18T01:25:51.889Z,0.00
2019-05-18T01:27:44.865Z,0.00
2019-05-18T01:28:44.923Z,0.00
2019-05-18T01:30:37.923Z,0.00
2019-05-18T01:31:37.961Z,0.00
2019-05-18T01:33:30.965Z,0.00
2019-05-18T01:34:31.003Z,0.00
2019-05-18T01:36:24.016Z,0.00
2019-05-18T01:37:24.042Z,0.00
2019-05-18T01:39:17.034Z,0.00
2019-05-18T01:40:17.118Z,0.00
2019-05-18T01:42:10.107Z,0.00
2019-05-18T01:43:10.132Z,0.00
2019-05-18T01:45:15.805Z,0.00
2019-05-18T01:46:03.167Z,0.00
2019-05-18T01:47:56.169Z,0.00
2019-05-18T01:48:56.208Z,0.00
2019-05-18T01:50:49.201Z,0.00
2019-05-18T01:51:49.252Z,0.00
2019-05-18T01:53:42.259Z,0.00
2019-05-18T01:54:42.279Z,0.00
2019-05-18T01:56:35.274Z,0.00
2019-05-18T01:57:35.334Z,0.00
2019-05-18T01:59:28.332Z,0.00
2019-05-18T02:00:28.363Z,0.00
2019-05-18T02:02:21.351Z,0.00
2019-05-18T02:03:21.407Z,0.00
2019-05-18T02:05:14.405Z,0.00
2019-05-18T02:06:14.456Z,0.00
2019-05-18T02:08:07.446Z,0.00
2019-05-18T02:09:07.488Z,0.00
2019-05-18T02:11:00.498Z,0.00
2019-05-18T02:12:00.524Z,0.00
2019-05-18T02:13:53.508Z,0.00
2019-05-18T02:14:53.561Z,0.00
2019-05-18T02:16:46.556Z,0.00
2019-05-18T02:17:46.598Z,0.00
2019-05-18T02:19:39.585Z,0.00
2019-05-18T02:20:39.639Z,0.00
2019-05-18T02:22:32.716Z,0.00
2019-05-18T02:23:32.756Z,0.00
2019-05-18T02:25:25.734Z,0.00
2019-05-18T02:26:25.794Z,0.00
2019-05-18T02:28:18.806Z,0.00
2019-05-18T02:29:18.829Z,0.00
2019-05-18T02:31:12.327Z,0.00
2019-05-18T02:32:12.373Z,0.00
2019-05-18T02:34:05.397Z,0.00
2019-05-18T02:35:05.425Z,0.00
2019-05-18T02:36:58.407Z,0.00
2019-05-18T02:37:58.460Z,0.00
2019-05-18T02:39:51.465Z,0.00
2019-05-18T02:40:51.508Z,0.00
2019-05-18T02:42:44.491Z,0.00
2019-05-18T02:43:44.544Z,0.00
2019-05-18T02:45:37.559Z,0.00
2019-05-18T02:46:37.587Z,0.00
2019-05-18T02:48:47.617Z,0.00
2019-05-18T02:49:30.617Z,0.00
2019-05-18T02:51:23.632Z,0.00
2019-05-18T02:52:23.662Z,0.00
2019-05-18T02:54:16.641Z,0.00
2019-05-18T02:55:16.702Z,0.00
2019-05-18T02:57:09.709Z,0.00
2019-05-18T02:58:09.736Z,0.00
2019-05-18T03:00:02.718Z,0.00
2019-05-18T03:01:02.776Z,0.00
2019-05-18T03:02:55.773Z,0.00
2019-05-18T03:03:55.811Z,0.00
2019-05-18T03:05:48.793Z,0.00
2019-05-18T03:06:48.854Z,0.00
2019-05-18T03:08:41.914Z,0.00
2019-05-18T03:09:41.895Z,0.00
2019-05-18T03:11:34.877Z,0.00
2019-05-18T03:12:34.936Z,0.00
2019-05-18T03:14:27.946Z,0.00
2019-05-18T03:15:27.973Z,0.00
2019-05-18T03:17:20.961Z,0.00
2019-05-18T03:18:21.061Z,0.00
2019-05-18T03:20:14.016Z,0.00
2019-05-18T03:21:14.039Z,0.00
2019-05-18T03:23:07.025Z,5.63
2019-05-18T03:24:07.084Z,5.63
2019-05-18T03:26:00.075Z,5.63
2019-05-18T03:27:00.122Z,5.63
2019-05-18T03:28:53.130Z,5.63
2019-05-18T03:29:53.156Z,5.63
2019-05-18T03:31:46.646Z,11.25
2019-05-18T03:32:46.701Z,11.25
2019-05-18T03:34:39.736Z,11.25
2019-05-18T03:35:39.762Z,11.25
2019-05-18T03:37:32.718Z,16.88
2019-05-18T03:38:32.778Z,16.88
2019-05-18T03:40:25.791Z,16.88
2019-05-18T03:41:25.822Z,22.50
2019-05-18T03:43:18.800Z,22.50
2019-05-18T03:44:18.855Z,22.50
2019-05-18T03:46:11.867Z,28.13
2019-05-18T03:47:11.897Z,28.13
2019-05-18T03:49:04.870Z,33.75
2019-05-18T03:50:04.926Z,33.75
2019-05-18T03:51:57.934Z,39.38
2019-05-18T03:52:57.960Z,39.38
2019-05-18T03:54:50.942Z,45.00
2019-05-18T03:55:50.997Z,45.00
2019-05-18T03:57:44.003Z,50.63
2019-05-18T03:58:44.040Z,50.63
2019-05-18T04:00:37.039Z,56.25
2019-05-18T04:01:37.154Z,56.25
2019-05-18T04:03:30.073Z,61.88
2019-05-18T04:04:30.114Z,61.88
2019-05-18T04:06:23.097Z,67.50
2019-05-18T04:07:23.153Z,67.50
2019-05-18T04:09:16.154Z,73.13
2019-05-18T04:10:16.194Z,78.75
2019-05-18T04:12:09.176Z,78.75
2019-05-18T04:13:09.248Z,84.38
2019-05-18T04:15:02.250Z,90.00
2019-05-18T04:16:02.282Z,90.00
2019-05-18T04:17:55.261Z,95.63
2019-05-18T04:18:55.320Z,101.25
2019-05-18T04:20:48.318Z,106.88
2019-05-18T04:21:48.357Z,106.88
2019-05-18T04:23:41.356Z,112.50
2019-05-18T04:24:41.394Z,118.13
2019-05-18T04:26:34.385Z,123.75
2019-05-18T04:27:34.432Z,123.75
2019-05-18T04:29:27.435Z,129.38
2019-05-18T04:30:27.471Z,135.00
2019-05-18T04:32:20.455Z,140.63
2019-05-18T04:33:20.516Z,140.63
2019-05-18T04:35:13.510Z,146.25
2019-05-18T04:36:13.550Z,146.25
2019-05-18T04:38:06.549Z,151.88
2019-05-18T04:39:06.588Z,157.50
2019-05-18T04:40:59.573Z,163.13
2019-05-18T04:41:59.632Z,163.13
2019-05-18T04:43:52.641Z,168.75
2019-05-18T04:44:52.672Z,174.38
2019-05-18T04:46:45.655Z,174.38
2019-05-18T04:47:48.465Z,180.00
2019-05-18T04:49:38.724Z,185.63
2019-05-18T04:50:38.764Z,185.63
2019-05-18T04:52:31.818Z,191.25
2019-05-18T04:53:31.805Z,191.25
2019-05-18T04:55:24.853Z,196.88
2019-05-18T04:56:24.850Z,202.50
2019-05-18T04:58:17.829Z,202.50
2019-05-18T04:59:17.887Z,208.13
2019-05-18T05:01:10.891Z,213.75
2019-05-18T05:02:10.961Z,213.75
2019-05-18T05:04:03.915Z,219.38
2019-05-18T05:05:03.971Z,225.00
2019-05-18T05:06:56.968Z,230.63
2019-05-18T05:07:57.022Z,236.25
2019-05-18T05:09:50.023Z,241.88
2019-05-18T05:10:50.060Z,247.50
2019-05-18T05:12:43.058Z,253.13
2019-05-18T05:13:43.097Z,258.75
2019-05-18T05:15:36.100Z,258.75
2019-05-18T05:16:36.176Z,264.38
2019-05-18T05:18:29.230Z,270.00
2019-05-18T05:19:29.383Z,275.63
2019-05-18T05:21:22.254Z,281.25
2019-05-18T05:22:22.262Z,286.88
2019-05-18T05:24:15.234Z,292.50
2019-05-18T05:25:15.315Z,298.13
2019-05-18T05:27:08.363Z,309.38
2019-05-18T05:28:08.538Z,315.00
2019-05-18T05:30:01.378Z,320.63
2019-05-18T05:31:01.367Z,326.25
2019-05-18T05:32:54.410Z,331.88
2019-05-18T05:33:54.416Z,337.50
2019-05-18T05:35:47.466Z,348.75
2019-05-18T05:36:47.715Z,354.38
2019-05-18T05:38:40.422Z,365.63
2019-05-18T05:39:40.522Z,365.63
2019-05-18T05:41:33.509Z,365.63
2019-05-18T05:42:33.507Z,365.63
2019-05-18T05:44:26.493Z,371.25
2019-05-18T05:45:26.553Z,376.88
2019-05-18T05:47:19.558Z,399.38
2019-05-18T05:48:19.596Z,399.38
2019-05-18T05:50:12.578Z,410.63
2019-05-18T05:51:12.637Z,416.25
2019-05-18T05:53:05.698Z,427.50
2019-05-18T05:54:05.738Z,433.13
2019-05-18T05:55:58.736Z,444.38
2019-05-18T05:56:58.782Z,450.00
2019-05-18T05:58:51.772Z,461.25
2019-05-18T05:59:51.832Z,472.50
2019-05-18T06:01:44.829Z,472.50
2019-05-18T06:02:44.876Z,489.38
2019-05-18T06:04:37.877Z,506.25
2019-05-18T06:05:37.930Z,523.13
2019-05-18T06:07:30.902Z,551.25
2019-05-18T06:08:30.958Z,573.75
2019-05-18T06:10:23.954Z,630.00
2019-05-18T06:11:23.997Z,658.13
2019-05-18T06:13:16.990Z,1524.38
2019-05-18T06:14:17.039Z,2255.63
2019-05-18T06:16:10.041Z,2334.38
2019-05-18T06:17:10.081Z,2446.88
2019-05-18T06:19:03.093Z,2548.13
2019-05-18T06:20:03.132Z,2475.00
2019-05-18T06:21:56.141Z,2542.50
2019-05-18T06:22:56.186Z,2531.25
2019-05-18T06:24:49.181Z,2615.63
2019-05-18T06:25:49.235Z,2705.63
2019-05-18T06:27:42.230Z,2581.88
2019-05-18T06:28:42.295Z,2570.63
2019-05-18T06:30:35.304Z,2514.38
2019-05-18T06:31:35.371Z,2581.88
2019-05-18T06:33:28.367Z,2677.50
2019-05-18T06:34:28.477Z,2649.38
2019-05-18T06:36:21.418Z,2733.75
2019-05-18T06:37:21.466Z,2761.88
2019-05-18T06:39:14.479Z,2756.25
2019-05-18T06:40:14.527Z,2688.75
2019-05-18T06:42:10.658Z,2711.25
2019-05-18T06:43:07.587Z,2835.00
2019-05-18T06:45:00.647Z,2851.88
2019-05-18T06:46:00.787Z,2846.25
2019-05-18T06:47:53.705Z,2947.50
2019-05-18T06:48:53.754Z,2818.13
2019-05-18T06:50:46.797Z,2919.38
2019-05-18T06:51:46.825Z,2885.63
2019-05-18T06:53:39.902Z,2958.75
2019-05-18T06:54:39.934Z,2896.88
2019-05-18T06:56:32.973Z,2711.25
2019-05-18T06:57:33.030Z,2863.13
2019-05-18T06:59:26.035Z,3121.88
2019-05-18T07:00:26.104Z,3020.63
2019-05-18T07:02:19.129Z,3121.88
2019-05-18T07:03:19.180Z,3099.38
2019-05-18T07:05:12.202Z,2812.50
2019-05-18T07:06:12.255Z,2885.63
2019-05-18T07:08:05.283Z,2261.25
2019-05-18T07:09:05.341Z,3082.50
2019-05-18T07:10:58.365Z,2053.13
2019-05-18T07:11:58.422Z,2424.38
2019-05-18T07:13:51.453Z,3346.88
2019-05-18T07:14:51.503Z,2340.00
2019-05-18T07:16:44.553Z,3470.63
2019-05-18T07:17:44.581Z,2396.25
2019-05-18T07:19:37.600Z,1479.38
2019-05-18T07:20:37.669Z,1321.88
2019-05-18T07:22:30.708Z,1597.50
2019-05-18T07:23:30.762Z,2896.88
2019-05-18T07:25:23.763Z,2930.63
2019-05-18T07:26:23.832Z,2233.13
2019-05-18T07:28:16.862Z,2880.00
2019-05-18T07:29:16.911Z,3886.88
2019-05-18T07:31:09.919Z,4140.00
2019-05-18T07:32:10.217Z,3774.38
2019-05-18T07:34:03.025Z,3560.63
2019-05-18T07:35:03.096Z,3262.50
2019-05-18T07:36:56.116Z,3166.88
2019-05-18T07:37:56.161Z,3296.25
2019-05-18T07:39:49.208Z,3740.63
2019-05-18T07:40:49.240Z,3976.88
2019-05-18T07:42:42.290Z,4050.00
2019-05-18T07:43:42.325Z,3825.00
2019-05-18T07:45:35.367Z,4055.63
2019-05-18T07:46:35.419Z,4331.25
2019-05-18T07:48:28.433Z,4308.75
2019-05-18T07:49:28.504Z,4241.25
2019-05-18T07:51:35.085Z,4241.25
2019-05-18T07:52:21.598Z,4168.13
2019-05-18T07:54:14.613Z,4123.13
2019-05-18T07:55:14.692Z,3948.75
2019-05-18T07:57:07.737Z,3892.50
2019-05-18T07:58:07.778Z,4162.50
2019-05-18T08:00:00.801Z,4246.88
2019-05-18T08:01:00.879Z,3864.38
2019-05-18T08:02:53.917Z,3605.63
2019-05-18T08:03:53.984Z,4320.00
2019-05-18T08:05:47.006Z,3015.00
2019-05-18T08:06:47.070Z,2570.63
2019-05-18T08:08:40.089Z,1411.88
2019-05-18T08:09:40.175Z,1428.75
2019-05-18T08:11:33.205Z,1350.00
2019-05-18T08:12:33.254Z,1333.13
2019-05-18T08:14:26.266Z,1350.00
2019-05-18T08:15:26.346Z,1383.75
2019-05-18T08:17:19.382Z,1383.75
2019-05-18T08:18:19.435Z,1473.75
2019-05-18T08:20:12.464Z,1485.00
2019-05-18T08:21:12.516Z,1518.75
2019-05-18T08:23:05.523Z,1608.75
2019-05-18T08:24:05.609Z,1608.75
2019-05-18T08:25:58.652Z,2019.38
2019-05-18T08:27:02.019Z,2233.13
2019-05-18T08:28:51.708Z,2486.25
2019-05-18T08:29:51.778Z,2238.75
2019-05-18T08:31:45.311Z,2233.13
2019-05-18T08:32:45.373Z,2233.13
2019-05-18T08:34:38.471Z,1918.13
2019-05-18T08:35:38.512Z,2103.75
2019-05-18T08:37:31.541Z,2306.25
2019-05-18T08:38:31.591Z,2497.50
2019-05-18T08:40:24.619Z,2345.63
2019-05-18T08:41:24.665Z,2137.50
2019-05-18T08:43:17.712Z,2846.25
2019-05-18T08:44:17.746Z,3476.25
2019-05-18T08:46:10.821Z,3543.75
2019-05-18T08:47:10.822Z,2705.63
2019-05-18T08:49:03.855Z,2598.75
2019-05-18T08:50:03.910Z,2761.88
2019-05-18T08:52:07.830Z,2587.50
2019-05-18T08:52:56.989Z,2328.75
2019-05-18T08:54:49.996Z,2075.63
2019-05-18T08:55:50.069Z,2120.63
2019-05-18T08:57:43.104Z,2300.63
2019-05-18T08:58:43.162Z,2435.63
2019-05-18T09:00:36.199Z,2638.13
2019-05-18T09:01:36.248Z,2733.75
2019-05-18T09:03:29.257Z,2722.50
2019-05-18T09:04:29.333Z,3138.75
2019-05-18T09:06:22.369Z,3240.00
2019-05-18T09:07:22.417Z,3346.88
2019-05-18T09:09:15.428Z,3785.63
2019-05-18T09:10:15.499Z,4061.25
2019-05-18T09:12:08.567Z,2863.13
2019-05-18T09:13:08.582Z,2413.13
2019-05-18T09:15:01.601Z,1620.00
2019-05-18T09:16:01.671Z,2002.50
2019-05-18T09:17:54.700Z,2317.50
2019-05-18T09:18:54.759Z,2373.75
2019-05-18T09:20:48.265Z,2413.13
2019-05-18T09:21:48.361Z,1569.38
2019-05-18T09:23:41.367Z,1434.38
2019-05-18T09:24:41.422Z,1434.38
2019-05-18T09:26:34.448Z,1327.50
2019-05-18T09:27:34.498Z,1243.13
2019-05-18T09:29:27.521Z,1220.63
2019-05-18T09:30:27.583Z,1226.25
2019-05-18T09:32:21.131Z,1237.50
2019-05-18T09:33:21.165Z,1276.88
2019-05-18T09:35:14.181Z,1338.75
2019-05-18T09:36:14.252Z,1338.75
2019-05-18T09:38:07.270Z,1327.50
2019-05-18T09:39:07.328Z,1372.50
2019-05-18T09:41:00.334Z,1406.25
2019-05-18T09:42:00.401Z,1338.75
2019-05-18T09:43:53.436Z,1209.38
2019-05-18T09:44:53.483Z,1147.50
2019-05-18T09:46:46.526Z,1125.00
2019-05-18T09:47:46.561Z,1136.25
2019-05-18T09:49:39.565Z,1170.00
2019-05-18T09:50:39.634Z,1186.88
2019-05-18T09:52:44.015Z,1226.25
2019-05-18T09:53:32.702Z,1260.00
2019-05-18T09:55:25.737Z,1288.13
2019-05-18T09:56:25.778Z,1305.00
2019-05-18T09:58:18.782Z,1338.75
2019-05-18T09:59:18.855Z,1338.75
2019-05-18T10:01:11.877Z,1338.75
2019-05-18T10:02:11.926Z,1338.75
2019-05-18T10:04:04.950Z,1327.50
2019-05-18T10:05:05.114Z,1338.75
2019-05-18T10:06:58.021Z,1378.13
2019-05-18T10:07:58.072Z,1355.63
2019-05-18T10:09:51.095Z,1265.63
2019-05-18T10:10:51.149Z,1203.75
2019-05-18T10:12:44.157Z,1096.88
2019-05-18T10:13:44.223Z,1080.00
2019-05-18T10:15:37.246Z,1051.88
2019-05-18T10:16:37.296Z,1040.63
2019-05-18T10:18:30.335Z,1029.38
2019-05-18T10:19:30.368Z,1035.00
2019-05-18T10:21:23.374Z,1046.25
2019-05-18T10:22:23.440Z,1057.50
2019-05-18T10:24:16.468Z,1051.88
2019-05-18T10:25:16.526Z,1046.25
2019-05-18T10:27:09.524Z,1035.00
2019-05-18T10:28:09.594Z,1023.75
2019-05-18T10:30:02.607Z,1029.38
2019-05-18T10:31:02.666Z,1035.00
2019-05-18T10:32:55.683Z,1035.00
2019-05-18T10:33:55.731Z,1051.88
2019-05-18T10:35:48.741Z,1085.63
2019-05-18T10:36:48.807Z,1096.88
2019-05-18T10:38:41.872Z,1108.13
2019-05-18T10:39:41.920Z,1125.00
2019-05-18T10:41:34.924Z,1164.38
2019-05-18T10:42:34.997Z,1198.13
2019-05-18T10:44:28.019Z,1254.38
2019-05-18T10:45:28.075Z,1288.13
2019-05-18T10:47:21.071Z,1293.75
2019-05-18T10:48:21.139Z,1271.25
2019-05-18T10:50:14.169Z,1170.00
2019-05-18T10:51:14.212Z,1130.63
2019-05-18T10:53:07.232Z,1080.00
2019-05-18T10:54:07.284Z,1068.75
2019-05-18T10:56:00.300Z,1085.63
2019-05-18T10:57:00.370Z,1046.25
2019-05-18T10:58:53.438Z,973.13
2019-05-18T10:59:53.438Z,961.88
2019-05-18T11:01:46.462Z,945.00
2019-05-18T11:02:46.513Z,916.88
2019-05-18T11:04:40.198Z,838.13
2019-05-18T11:05:40.095Z,781.88
2019-05-18T11:07:33.101Z,663.75
2019-05-18T11:08:33.170Z,624.38
2019-05-18T11:10:26.200Z,573.75
2019-05-18T11:11:26.246Z,568.13
2019-05-18T11:13:19.250Z,585.00
2019-05-18T11:14:19.316Z,590.63
2019-05-18T11:16:12.340Z,596.25
2019-05-18T11:17:12.392Z,585.00
2019-05-18T11:19:05.400Z,562.50
2019-05-18T11:20:05.465Z,534.38
2019-05-18T11:21:58.489Z,478.13
2019-05-18T11:22:58.535Z,466.88
2019-05-18T11:24:51.541Z,511.88
2019-05-18T11:25:51.609Z,528.75
2019-05-18T11:27:44.633Z,568.13
2019-05-18T11:28:44.675Z,562.50
2019-05-18T11:30:37.688Z,573.75
2019-05-18T11:31:37.745Z,579.38
2019-05-18T11:33:30.771Z,568.13
2019-05-18T11:34:30.818Z,551.25
2019-05-18T11:36:23.855Z,495.00
2019-05-18T11:37:23.905Z,472.50
2019-05-18T11:39:16.906Z,438.75
2019-05-18T11:40:16.969Z,421.88
2019-05-18T11:42:10.006Z,410.63
2019-05-18T11:43:10.038Z,405.00
2019-05-18T11:45:03.042Z,388.13
2019-05-18T11:46:03.106Z,382.50
2019-05-18T11:47:56.134Z,371.25
2019-05-18T11:48:56.183Z,360.00
2019-05-18T11:50:49.200Z,354.38
2019-05-18T11:51:49.246Z,348.75
2019-05-18T11:53:42.255Z,343.13
2019-05-18T11:54:42.324Z,337.50
2019-05-18T11:56:35.341Z,337.50
2019-05-18T11:57:35.385Z,337.50
2019-05-18T11:59:28.389Z,337.50
2019-05-18T12:00:28.456Z,337.50
2019-05-18T12:02:21.481Z,337.50
2019-05-18T12:03:21.527Z,337.50
2019-05-18T12:05:14.539Z,337.50
2019-05-18T12:06:14.587Z,331.88
2019-05-18T12:08:07.607Z,337.50
2019-05-18T12:09:07.683Z,337.50
2019-05-18T12:11:00.679Z,337.50
2019-05-18T12:12:00.718Z,337.50
2019-05-18T12:13:53.721Z,343.13
2019-05-18T12:14:53.782Z,337.50
2019-05-18T12:16:46.794Z,337.50
2019-05-18T12:17:46.844Z,337.50
2019-05-18T12:19:39.854Z,337.50
2019-05-18T12:20:39.909Z,343.13
2019-05-18T12:22:32.935Z,343.13
2019-05-18T12:23:32.985Z,343.13
2019-05-18T12:25:25.992Z,343.13
2019-05-18T12:26:26.042Z,343.13
2019-05-18T12:28:19.079Z,348.75
2019-05-18T12:29:19.124Z,348.75
2019-05-18T12:31:12.148Z,348.75
2019-05-18T12:32:12.197Z,348.75
2019-05-18T12:34:05.208Z,348.75
2019-05-18T12:35:05.247Z,343.13
2019-05-18T12:36:58.281Z,348.75
2019-05-18T12:37:58.319Z,343.13
2019-05-18T12:39:51.344Z,354.38
2019-05-18T12:40:51.386Z,354.38
2019-05-18T12:42:44.402Z,360.00
2019-05-18T12:43:44.450Z,371.25
2019-05-18T12:45:37.447Z,365.63
2019-05-18T12:46:37.515Z,371.25
2019-05-18T12:48:30.535Z,388.13
2019-05-18T12:49:30.598Z,388.13
2019-05-18T12:51:23.584Z,393.75
2019-05-18T12:52:23.647Z,399.38
2019-05-18T12:54:28.805Z,410.63
2019-05-18T12:55:16.713Z,416.25
2019-05-18T12:57:09.726Z,427.50
2019-05-18T12:58:09.771Z,450.00
2019-05-18T13:00:02.775Z,466.88
2019-05-18T13:01:02.843Z,450.00
2019-05-18T13:02:55.913Z,450.00
2019-05-18T13:03:55.907Z,450.00
2019-05-18T13:05:48.928Z,455.63
2019-05-18T13:06:48.984Z,450.00
2019-05-18T13:08:41.995Z,466.88
2019-05-18T13:09:42.047Z,466.88
2019-05-18T13:11:35.055Z,416.25
2019-05-18T13:12:35.115Z,421.88
2019-05-18T13:14:28.200Z,427.50
2019-05-18T13:15:28.187Z,433.13
2019-05-18T13:17:21.469Z,416.25
2019-05-18T13:18:21.295Z,410.63
2019-05-18T13:20:14.308Z,405.00
2019-05-18T13:21:14.358Z,405.00
2019-05-18T13:23:07.492Z,399.38
2019-05-18T13:24:07.943Z,388.13
2019-05-18T13:26:38.739Z,348.75
2019-05-18T13:27:40.134Z,365.63
2019-05-18T13:29:31.821Z,455.63
2019-05-18T13:30:31.856Z,444.38
2019-05-18T13:32:49.104Z,500.63
2019-05-18T13:33:47.879Z,483.75
2019-05-18T13:35:40.904Z,489.38
2019-05-18T13:36:40.984Z,478.13
2019-05-18T13:38:34.802Z,438.75
2019-05-18T13:39:34.870Z,433.13
2019-05-18T13:41:27.898Z,450.00
2019-05-18T13:42:27.947Z,483.75
2019-05-18T13:44:20.967Z,483.75
2019-05-18T13:45:21.004Z,506.25
2019-05-18T13:47:13.996Z,562.50
2019-05-18T13:48:14.060Z,556.88
2019-05-18T13:50:07.102Z,489.38
2019-05-18T13:51:07.222Z,461.25
2019-05-18T13:53:00.551Z,393.75
2019-05-18T13:54:00.388Z,365.63
2019-05-18T13:56:14.082Z,360.00
2019-05-18T13:58:47.972Z,405.00
2019-05-18T13:59:48.067Z,405.00
2019-05-18T14:01:41.016Z,450.00
2019-05-18T14:02:41.101Z,444.38
2019-05-18T14:04:34.072Z,433.13
2019-05-18T14:05:41.891Z,416.25
2019-05-18T14:07:27.661Z,405.00
2019-05-18T14:08:27.687Z,410.63
2019-05-18T14:10:20.710Z,416.25
2019-05-18T14:11:20.757Z,405.00
2019-05-18T14:13:13.771Z,388.13
2019-05-18T14:14:13.820Z,382.50
2019-05-18T14:16:06.820Z,371.25
2019-05-18T14:17:06.887Z,399.38
2019-05-18T14:18:59.909Z,371.25
2019-05-18T14:19:59.948Z,360.00
2019-05-18T14:21:52.947Z,365.63
2019-05-18T14:22:53.012Z,337.50
2019-05-18T14:24:46.027Z,331.88
2019-05-18T14:25:46.286Z,365.63
2019-05-18T14:27:39.130Z,354.38
2019-05-18T14:28:39.259Z,376.88
2019-05-18T14:30:32.224Z,438.75
2019-05-18T14:31:32.272Z,455.63
2019-05-18T14:33:25.311Z,444.38
2019-05-18T14:34:25.339Z,450.00
2019-05-18T14:36:18.354Z,511.88
2019-05-18T14:37:18.405Z,506.25
2019-05-18T14:39:11.410Z,534.38
2019-05-18T14:40:11.477Z,500.63
2019-05-18T14:42:04.499Z,461.25
2019-05-18T14:43:04.551Z,472.50
2019-05-18T14:44:57.564Z,511.88
2019-05-18T14:45:57.621Z,506.25
2019-05-18T14:47:50.652Z,528.75
2019-05-18T14:48:50.689Z,534.38
2019-05-18T14:50:43.709Z,495.00
2019-05-18T14:51:43.784Z,478.13
2019-05-18T14:53:36.830Z,427.50
2019-05-18T14:54:36.841Z,382.50
2019-05-18T14:56:29.839Z,348.75
2019-05-18T14:57:29.905Z,337.50
2019-05-18T14:59:22.936Z,303.75
2019-05-18T15:00:22.970Z,298.13
2019-05-18T15:02:15.980Z,264.38
2019-05-18T15:03:16.044Z,264.38
2019-05-18T15:05:09.085Z,264.38
2019-05-18T15:06:09.108Z,275.63
2019-05-18T15:08:02.108Z,298.13
2019-05-18T15:09:02.177Z,320.63
2019-05-18T15:10:55.196Z,348.75
2019-05-18T15:11:55.247Z,354.38
2019-05-18T15:13:48.293Z,354.38
2019-05-18T15:14:48.319Z,360.00
2019-05-18T15:16:41.360Z,354.38
2019-05-18T15:17:41.405Z,354.38
2019-05-18T15:19:34.398Z,354.38
2019-05-18T15:20:34.478Z,354.38
2019-05-18T15:22:27.491Z,348.75
2019-05-18T15:23:27.529Z,343.13
2019-05-18T15:25:20.550Z,337.50
2019-05-18T15:26:20.593Z,331.88
2019-05-18T15:28:13.615Z,326.25
2019-05-18T15:29:13.658Z,315.00
2019-05-18T15:31:06.658Z,292.50
2019-05-18T15:32:06.733Z,303.75
2019-05-18T15:33:59.736Z,303.75
2019-05-18T15:34:59.786Z,315.00
2019-05-18T15:36:52.789Z,298.13
2019-05-18T15:37:52.851Z,309.38
2019-05-18T15:39:45.870Z,281.25
2019-05-18T15:40:45.916Z,298.13
2019-05-18T15:42:38.927Z,286.88
2019-05-18T15:43:38.988Z,309.38
2019-05-18T15:45:31.994Z,315.00
2019-05-18T15:46:32.052Z,326.25
2019-05-18T15:48:25.115Z,343.13
2019-05-18T15:49:25.127Z,348.75
2019-05-18T15:51:18.171Z,343.13
2019-05-18T15:52:18.193Z,343.13
2019-05-18T15:54:11.243Z,326.25
2019-05-18T15:55:11.271Z,315.00
2019-05-18T15:57:04.260Z,326.25
2019-05-18T15:58:04.335Z,337.50
2019-05-18T15:59:57.373Z,315.00
2019-05-18T16:00:57.424Z,315.00
2019-05-18T16:02:50.414Z,337.50
2019-05-18T16:03:50.484Z,326.25
2019-05-18T16:05:43.500Z,315.00
2019-05-18T16:06:43.610Z,315.00
2019-05-18T16:08:36.596Z,320.63
2019-05-18T16:09:36.612Z,331.88
2019-05-18T16:11:29.631Z,337.50
2019-05-18T16:12:29.674Z,331.88
2019-05-18T16:14:22.699Z,326.25
2019-05-18T16:15:22.739Z,326.25
2019-05-18T16:17:15.735Z,315.00
2019-05-18T16:18:15.808Z,309.38
2019-05-18T16:20:08.842Z,298.13
2019-05-18T16:21:08.868Z,292.50
2019-05-18T16:23:01.878Z,270.00
2019-05-18T16:24:01.967Z,264.38
2019-05-18T16:25:54.945Z,264.38
2019-05-18T16:26:55.079Z,258.75
2019-05-18T16:28:48.082Z,225.00
2019-05-18T16:29:48.080Z,219.38
2019-05-18T16:31:41.077Z,196.88
2019-05-18T16:32:41.142Z,191.25
2019-05-18T16:34:34.189Z,180.00
2019-05-18T16:35:34.213Z,168.75
2019-05-18T16:37:27.236Z,157.50
2019-05-18T16:38:27.274Z,151.88
2019-05-18T16:40:20.273Z,146.25
2019-05-18T16:41:20.333Z,140.63
2019-05-18T16:43:13.361Z,129.38
2019-05-18T16:44:13.403Z,123.75
2019-05-18T16:46:06.394Z,112.50
2019-05-18T16:47:06.487Z,112.50
2019-05-18T16:48:59.509Z,106.88
2019-05-18T16:49:59.527Z,106.88
2019-05-18T16:51:52.524Z,106.88
2019-05-18T16:52:52.592Z,106.88
2019-05-18T16:54:45.617Z,118.13
2019-05-18T16:55:45.671Z,123.75
2019-05-18T16:57:38.653Z,135.00
2019-05-18T16:58:38.714Z,140.63
2019-05-18T17:00:31.744Z,146.25
2019-05-18T17:01:31.778Z,151.88
2019-05-18T17:03:24.774Z,163.13
2019-05-18T17:04:24.836Z,168.75
2019-05-18T17:06:17.861Z,185.63
2019-05-18T17:07:17.940Z,191.25
2019-05-18T17:09:10.914Z,196.88
2019-05-18T17:10:10.967Z,196.88
2019-05-18T17:12:04.000Z,191.25
2019-05-18T17:13:04.037Z,185.63
2019-05-18T17:14:57.033Z,180.00
2019-05-18T17:15:57.102Z,185.63
2019-05-18T17:17:50.115Z,191.25
2019-05-18T17:18:50.163Z,196.88
2019-05-18T17:20:43.159Z,196.88
2019-05-18T17:21:43.223Z,191.25
2019-05-18T17:23:36.248Z,180.00
2019-05-18T17:24:36.287Z,174.38
2019-05-18T17:26:29.315Z,163.13
2019-05-18T17:27:29.354Z,163.13
2019-05-18T17:29:22.443Z,157.50
2019-05-18T17:30:22.407Z,157.50
2019-05-18T17:32:15.439Z,157.50
2019-05-18T17:33:15.467Z,151.88
2019-05-18T17:35:08.475Z,140.63
2019-05-18T17:36:08.526Z,140.63
2019-05-18T17:38:01.617Z,129.38
2019-05-18T17:39:01.629Z,123.75
2019-05-18T17:40:54.631Z,118.13
2019-05-18T17:41:54.672Z,112.50
2019-05-18T17:43:47.673Z,112.50
2019-05-18T17:44:47.717Z,112.50
2019-05-18T17:46:40.733Z,118.13
2019-05-18T17:47:40.780Z,123.75
2019-05-18T17:49:33.847Z,129.38
2019-05-18T17:50:33.836Z,129.38
2019-05-18T17:52:26.855Z,123.75
2019-05-18T17:53:26.896Z,118.13
2019-05-18T17:55:19.913Z,112.50
2019-05-18T17:56:19.960Z,112.50
2019-05-18T17:58:12.974Z,112.50
2019-05-18T17:59:13.019Z,112.50
2019-05-18T18:01:06.038Z,106.88
2019-05-18T18:02:06.080Z,101.25
2019-05-18T18:03:59.084Z,101.25
2019-05-18T18:05:00.099Z,101.25
2019-05-18T18:06:52.166Z,106.88
2019-05-18T18:07:55.311Z,106.88